sensor_id;sensor_type;location;lat;lon;timestamp;temperature;humidity
78571;SHT31;67861;51.966;5.672;2023-05-10T00:30:25;18.6;63.7
78571;SHT31;67861;51.966;5.672;2023-05-10T01:33:19;18.8;64.2
78571;SHT31;67861;51.966;5.672;2023-05-10T01:42:41;18.7;64.3
78571;SHT31;67861;51.966;5.672;2023-05-10T01:45:23;18.7;64.3
78571;SHT31;67861;51.966;5.672;2023-05-10T01:48:08;18.7;64.3
78571;SHT31;67861;51.966;5.672;2023-05-10T01:50:42;18.6;64.3
78571;SHT31;67861;51.966;5.672;2023-05-10T01:53:13;18.6;64.3
78571;SHT31;67861;51.966;5.672;2023-05-10T01:56:00;18.5;64.2
78571;SHT31;67861;51.966;5.672;2023-05-10T01:58:32;18.5;64.6
78571;SHT31;67861;51.966;5.672;2023-05-10T02:01:04;18.4;64.7
78571;SHT31;67861;51.966;5.672;2023-05-10T02:03:38;18.4;65.0
78571;SHT31;67861;51.966;5.672;2023-05-10T02:06:10;18.3;65.2
78571;SHT31;67861;51.966;5.672;2023-05-10T02:08:43;18.3;65.3
78571;SHT31;67861;51.966;5.672;2023-05-10T02:11:19;18.2;65.6
78571;SHT31;67861;51.966;5.672;2023-05-10T02:13:51;18.2;65.8
78571;SHT31;67861;51.966;5.672;2023-05-10T02:16:25;18.1;65.6
78571;SHT31;67861;51.966;5.672;2023-05-10T02:19:01;18.1;66.1
78571;SHT31;67861;51.966;5.672;2023-05-10T02:21:33;18.1;66.6
78571;SHT31;67861;51.966;5.672;2023-05-10T02:24:04;18.0;66.5
78571;SHT31;67861;51.966;5.672;2023-05-10T02:26:38;18.0;67.0
78571;SHT31;67861;51.966;5.672;2023-05-10T02:29:16;18.0;66.4
78571;SHT31;67861;51.966;5.672;2023-05-10T02:31:47;18.0;66.2
78571;SHT31;67861;51.966;5.672;2023-05-10T02:34:19;18.0;66.3
78571;SHT31;67861;51.966;5.672;2023-05-10T02:36:51;18.1;66.7
78571;SHT31;67861;51.966;5.672;2023-05-10T02:39:27;18.2;66.3
78571;SHT31;67861;51.966;5.672;2023-05-10T02:42:04;18.3;65.8
78571;SHT31;67861;51.966;5.672;2023-05-10T02:44:40;18.3;65.4
78571;SHT31;67861;51.966;5.672;2023-05-10T02:47:10;18.3;64.9
78571;SHT31;67861;51.966;5.672;2023-05-10T02:49:40;18.2;64.8
78571;SHT31;67861;51.966;5.672;2023-05-10T02:52:10;18.2;65.1
78571;SHT31;67861;51.966;5.672;2023-05-10T02:54:45;18.2;65.2
78571;SHT31;67861;51.966;5.672;2023-05-10T02:57:25;18.1;65.1
78571;SHT31;67861;51.966;5.672;2023-05-10T02:59:56;18.0;65.3
78571;SHT31;67861;51.966;5.672;2023-05-10T03:02:26;18.0;65.6
78571;SHT31;67861;51.966;5.672;2023-05-10T03:04:57;18.0;65.9
78571;SHT31;67861;51.966;5.672;2023-05-10T03:07:27;17.9;65.8
78571;SHT31;67861;51.966;5.672;2023-05-10T03:09:57;17.9;65.7
78571;SHT31;67861;51.966;5.672;2023-05-10T03:12:41;17.9;66.1
78571;SHT31;67861;51.966;5.672;2023-05-10T03:15:25;17.9;66.0
78571;SHT31;67861;51.966;5.672;2023-05-10T03:17:56;17.9;65.5
78571;SHT31;67861;51.966;5.672;2023-05-10T03:20:39;17.9;65.6
78571;SHT31;67861;51.966;5.672;2023-05-10T03:23:13;17.8;65.6
78571;SHT31;67861;51.966;5.672;2023-05-10T03:25:49;17.8;65.3
78571;SHT31;67861;51.966;5.672;2023-05-10T03:28:21;17.8;65.6
78571;SHT31;67861;51.966;5.672;2023-05-10T03:30:55;17.7;65.7
78571;SHT31;67861;51.966;5.672;2023-05-10T03:33:25;17.7;65.6
78571;SHT31;67861;51.966;5.672;2023-05-10T03:35:55;17.7;65.7
78571;SHT31;67861;51.966;5.672;2023-05-10T03:38:26;17.6;65.7
78571;SHT31;67861;51.966;5.672;2023-05-10T03:40:56;17.6;65.9
78571;SHT31;67861;51.966;5.672;2023-05-10T03:43:25;17.6;65.9
78571;SHT31;67861;51.966;5.672;2023-05-10T03:45:55;17.6;66.0
78571;SHT31;67861;51.966;5.672;2023-05-10T03:48:25;17.5;66.2
78571;SHT31;67861;51.966;5.672;2023-05-10T03:50:54;17.5;66.1
78571;SHT31;67861;51.966;5.672;2023-05-10T03:53:25;17.5;66.4
78571;SHT31;67861;51.966;5.672;2023-05-10T03:55:55;17.5;66.6
78571;SHT31;67861;51.966;5.672;2023-05-10T03:58:24;17.5;66.9
78571;SHT31;67861;51.966;5.672;2023-05-10T04:00:59;17.5;66.3
78571;SHT31;67861;51.966;5.672;2023-05-10T04:03:28;17.5;66.2
78571;SHT31;67861;51.966;5.672;2023-05-10T04:06:02;17.5;66.7
78571;SHT31;67861;51.966;5.672;2023-05-10T04:08:31;17.5;66.7
78571;SHT31;67861;51.966;5.672;2023-05-10T04:11:08;17.4;66.7
78571;SHT31;67861;51.966;5.672;2023-05-10T04:13:38;17.4;66.7
78571;SHT31;67861;51.966;5.672;2023-05-10T04:16:09;17.4;67.1
78571;SHT31;67861;51.966;5.672;2023-05-10T04:18:39;17.4;67.0
78571;SHT31;67861;51.966;5.672;2023-05-10T04:21:13;17.4;67.0
78571;SHT31;67861;51.966;5.672;2023-05-10T04:23:43;17.3;67.1
78571;SHT31;67861;51.966;5.672;2023-05-10T04:26:15;17.3;67.5
78571;SHT31;67861;51.966;5.672;2023-05-10T04:28:45;17.3;67.5
78571;SHT31;67861;51.966;5.672;2023-05-10T04:31:14;17.2;67.2
78571;SHT31;67861;51.966;5.672;2023-05-10T04:33:46;17.2;67.6
78571;SHT31;67861;51.966;5.672;2023-05-10T04:36:17;17.2;67.6
78571;SHT31;67861;51.966;5.672;2023-05-10T04:38:47;17.2;68.0
78571;SHT31;67861;51.966;5.672;2023-05-10T04:41:16;17.3;67.9
78571;SHT31;67861;51.966;5.672;2023-05-10T04:43:46;17.4;67.5
78571;SHT31;67861;51.966;5.672;2023-05-10T04:46:16;17.5;66.4
78571;SHT31;67861;51.966;5.672;2023-05-10T04:48:46;17.5;66.6
78571;SHT31;67861;51.966;5.672;2023-05-10T04:51:17;17.5;66.7
78571;SHT31;67861;51.966;5.672;2023-05-10T04:53:47;17.4;66.9
78571;SHT31;67861;51.966;5.672;2023-05-10T04:56:18;17.4;67.0
78571;SHT31;67861;51.966;5.672;2023-05-10T04:58:47;17.4;67.0
78571;SHT31;67861;51.966;5.672;2023-05-10T05:01:17;17.4;67.1
78571;SHT31;67861;51.966;5.672;2023-05-10T05:03:47;17.4;67.2
78571;SHT31;67861;51.966;5.672;2023-05-10T05:06:16;17.4;67.5
78571;SHT31;67861;51.966;5.672;2023-05-10T05:08:48;17.3;67.6
78571;SHT31;67861;51.966;5.672;2023-05-10T05:11:18;17.3;67.6
78571;SHT31;67861;51.966;5.672;2023-05-10T05:13:53;17.3;67.7
78571;SHT31;67861;51.966;5.672;2023-05-10T05:16:24;17.3;67.7
78571;SHT31;67861;51.966;5.672;2023-05-10T05:18:54;17.3;67.8
78571;SHT31;67861;51.966;5.672;2023-05-10T05:21:24;17.3;68.3
78571;SHT31;67861;51.966;5.672;2023-05-10T05:23:54;17.3;68.4
78571;SHT31;67861;51.966;5.672;2023-05-10T05:26:24;17.3;67.9
78571;SHT31;67861;51.966;5.672;2023-05-10T05:28:53;17.3;68.3
78571;SHT31;67861;51.966;5.672;2023-05-10T05:31:26;17.3;67.9
78571;SHT31;67861;51.966;5.672;2023-05-10T05:33:56;17.4;67.6
78571;SHT31;67861;51.966;5.672;2023-05-10T05:36:25;17.4;67.6
78571;SHT31;67861;51.966;5.672;2023-05-10T05:38:57;17.4;67.7
78571;SHT31;67861;51.966;5.672;2023-05-10T05:41:26;17.3;67.4
78571;SHT31;67861;51.966;5.672;2023-05-10T05:43:56;17.3;67.4
78571;SHT31;67861;51.966;5.672;2023-05-10T05:46:26;17.3;68.0
78571;SHT31;67861;51.966;5.672;2023-05-10T05:48:56;17.3;67.9
78571;SHT31;67861;51.966;5.672;2023-05-10T05:51:25;17.3;68.3
78571;SHT31;67861;51.966;5.672;2023-05-10T05:53:55;17.3;68.5
78571;SHT31;67861;51.966;5.672;2023-05-10T05:56:25;17.3;68.8
78571;SHT31;67861;51.966;5.672;2023-05-10T05:58:56;17.3;69.0
78571;SHT31;67861;51.966;5.672;2023-05-10T06:01:28;17.3;68.7
78571;SHT31;67861;51.966;5.672;2023-05-10T06:03:58;17.3;68.7
78571;SHT31;67861;51.966;5.672;2023-05-10T06:06:27;17.3;68.7
78571;SHT31;67861;51.966;5.672;2023-05-10T06:08:57;17.3;68.9
78571;SHT31;67861;51.966;5.672;2023-05-10T06:11:26;17.3;69.0
78571;SHT31;67861;51.966;5.672;2023-05-10T06:13:57;17.4;69.1
78571;SHT31;67861;51.966;5.672;2023-05-10T06:16:27;17.4;68.9
78571;SHT31;67861;51.966;5.672;2023-05-10T06:18:58;17.4;68.9
78571;SHT31;67861;51.966;5.672;2023-05-10T06:21:28;17.4;69.3
78571;SHT31;67861;51.966;5.672;2023-05-10T06:23:58;17.4;69.1
78571;SHT31;67861;51.966;5.672;2023-05-10T06:26:27;17.4;69.1
78571;SHT31;67861;51.966;5.672;2023-05-10T06:28:57;17.4;69.1
78571;SHT31;67861;51.966;5.672;2023-05-10T06:31:27;17.4;69.2
78571;SHT31;67861;51.966;5.672;2023-05-10T06:33:56;17.4;69.1
78571;SHT31;67861;51.966;5.672;2023-05-10T06:36:26;17.4;69.3
78571;SHT31;67861;51.966;5.672;2023-05-10T06:38:56;17.4;69.0
78571;SHT31;67861;51.966;5.672;2023-05-10T06:41:25;17.4;68.6
78571;SHT31;67861;51.966;5.672;2023-05-10T06:43:55;17.5;68.7
78571;SHT31;67861;51.966;5.672;2023-05-10T06:46:24;17.5;68.6
78571;SHT31;67861;51.966;5.672;2023-05-10T06:48:54;17.5;68.6
78571;SHT31;67861;51.966;5.672;2023-05-10T06:51:24;17.5;68.8
78571;SHT31;67861;51.966;5.672;2023-05-10T06:53:53;17.5;68.9
78571;SHT31;67861;51.966;5.672;2023-05-10T06:56:23;17.5;68.3
78571;SHT31;67861;51.966;5.672;2023-05-10T06:58:55;17.5;68.8
78571;SHT31;67861;51.966;5.672;2023-05-10T07:01:25;17.5;68.5
78571;SHT31;67861;51.966;5.672;2023-05-10T07:03:54;17.5;68.6
78571;SHT31;67861;51.966;5.672;2023-05-10T07:06:26;17.5;68.4
78571;SHT31;67861;51.966;5.672;2023-05-10T07:08:56;17.5;68.4
78571;SHT31;67861;51.966;5.672;2023-05-10T07:11:26;17.5;68.4
78571;SHT31;67861;51.966;5.672;2023-05-10T07:13:56;17.4;68.7
78571;SHT31;67861;51.966;5.672;2023-05-10T07:16:26;17.4;68.8
78571;SHT31;67861;51.966;5.672;2023-05-10T07:18:56;17.4;69.0
78571;SHT31;67861;51.966;5.672;2023-05-10T07:21:25;17.4;69.4
78571;SHT31;67861;51.966;5.672;2023-05-10T07:23:55;17.4;69.5
78571;SHT31;67861;51.966;5.672;2023-05-10T07:26:25;17.4;69.4
78571;SHT31;67861;51.966;5.672;2023-05-10T07:28:55;17.4;68.8
78571;SHT31;67861;51.966;5.672;2023-05-10T07:31:25;17.4;69.3
78571;SHT31;67861;51.966;5.672;2023-05-10T07:33:54;17.4;68.3
78571;SHT31;67861;51.966;5.672;2023-05-10T07:36:24;17.4;69.7
78571;SHT31;67861;51.966;5.672;2023-05-10T07:38:55;17.4;70.2
78571;SHT31;67861;51.966;5.672;2023-05-10T07:41:24;17.4;70.3
78571;SHT31;67861;51.966;5.672;2023-05-10T07:43:54;17.4;70.9
78571;SHT31;67861;51.966;5.672;2023-05-10T07:46:24;17.5;69.9
78571;SHT31;67861;51.966;5.672;2023-05-10T07:48:55;17.5;69.3
78571;SHT31;67861;51.966;5.672;2023-05-10T07:51:25;17.5;69.2
78571;SHT31;67861;51.966;5.672;2023-05-10T07:53:55;17.5;68.8
78571;SHT31;67861;51.966;5.672;2023-05-10T07:56:29;17.6;69.0
78571;SHT31;67861;51.966;5.672;2023-05-10T07:58:59;17.6;68.9
78571;SHT31;67861;51.966;5.672;2023-05-10T08:01:32;17.6;68.9
78571;SHT31;67861;51.966;5.672;2023-05-10T08:04:02;17.6;68.6
78571;SHT31;67861;51.966;5.672;2023-05-10T08:06:32;17.6;68.4
78571;SHT31;67861;51.966;5.672;2023-05-10T08:09:01;17.6;68.0
78571;SHT31;67861;51.966;5.672;2023-05-10T08:11:31;17.6;67.4
78571;SHT31;67861;51.966;5.672;2023-05-10T08:14:02;17.6;67.5
78571;SHT31;67861;51.966;5.672;2023-05-10T08:16:32;17.6;66.8
78571;SHT31;67861;51.966;5.672;2023-05-10T08:19:02;17.6;66.5
78571;SHT31;67861;51.966;5.672;2023-05-10T08:21:35;17.5;64.9
78571;SHT31;67861;51.966;5.672;2023-05-10T08:24:05;17.5;65.7
78571;SHT31;67861;51.966;5.672;2023-05-10T08:26:35;17.5;67.0
78571;SHT31;67861;51.966;5.672;2023-05-10T08:29:05;17.5;65.2
78571;SHT31;67861;51.966;5.672;2023-05-10T08:31:34;17.5;65.2
78571;SHT31;67861;51.966;5.672;2023-05-10T08:34:04;17.5;65.8
78571;SHT31;67861;51.966;5.672;2023-05-10T08:36:33;17.5;65.8
78571;SHT31;67861;51.966;5.672;2023-05-10T08:39:03;17.4;66.0
78571;SHT31;67861;51.966;5.672;2023-05-10T08:41:34;17.4;65.1
78571;SHT31;67861;51.966;5.672;2023-05-10T08:44:04;17.4;64.4
78571;SHT31;67861;51.966;5.672;2023-05-10T08:46:37;17.4;66.2
78571;SHT31;67861;51.966;5.672;2023-05-10T08:49:13;17.4;65.5
78571;SHT31;67861;51.966;5.672;2023-05-10T08:51:50;17.4;64.6
78571;SHT31;67861;51.966;5.672;2023-05-10T08:54:24;17.4;63.2
78571;SHT31;67861;51.966;5.672;2023-05-10T08:56:54;17.4;64.8
78571;SHT31;67861;51.966;5.672;2023-05-10T08:59:24;17.4;66.3
78571;SHT31;67861;51.966;5.672;2023-05-10T09:01:56;17.5;68.0
78571;SHT31;67861;51.966;5.672;2023-05-10T09:04:27;17.5;65.3
78571;SHT31;67861;51.966;5.672;2023-05-10T09:06:57;17.5;67.2
78571;SHT31;67861;51.966;5.672;2023-05-10T09:09:27;17.5;66.7
78571;SHT31;67861;51.966;5.672;2023-05-10T09:11:58;17.6;66.2
78571;SHT31;67861;51.966;5.672;2023-05-10T09:14:28;17.7;67.8
78571;SHT31;67861;51.966;5.672;2023-05-10T09:16:58;17.8;66.7
78571;SHT31;67861;51.966;5.672;2023-05-10T09:19:28;17.9;66.4
78571;SHT31;67861;51.966;5.672;2023-05-10T09:21:57;17.9;66.3
78571;SHT31;67861;51.966;5.672;2023-05-10T09:24:30;17.9;66.6
78571;SHT31;67861;51.966;5.672;2023-05-10T09:26:59;18.0;66.6
78571;SHT31;67861;51.966;5.672;2023-05-10T09:29:42;18.0;66.7
78571;SHT31;67861;51.966;5.672;2023-05-10T09:32:14;18.0;63.1
78571;SHT31;67861;51.966;5.672;2023-05-10T09:34:44;18.1;65.1
78571;SHT31;67861;51.966;5.672;2023-05-10T09:37:13;18.1;65.8
78571;SHT31;67861;51.966;5.672;2023-05-10T09:39:43;18.1;63.2
78571;SHT31;67861;51.966;5.672;2023-05-10T09:42:12;18.1;63.8
78571;SHT31;67861;51.966;5.672;2023-05-10T09:44:44;18.1;61.1
78571;SHT31;67861;51.966;5.672;2023-05-10T09:47:18;18.1;64.4
78571;SHT31;67861;51.966;5.672;2023-05-10T09:49:51;18.1;61.2
78571;SHT31;67861;51.966;5.672;2023-05-10T09:52:23;18.1;64.5
78571;SHT31;67861;51.966;5.672;2023-05-10T09:54:54;18.1;65.7
78571;SHT31;67861;51.966;5.672;2023-05-10T09:57:25;18.1;65.3
78571;SHT31;67861;51.966;5.672;2023-05-10T09:59:56;18.2;64.1
78571;SHT31;67861;51.966;5.672;2023-05-10T10:02:30;18.2;65.3
78571;SHT31;67861;51.966;5.672;2023-05-10T10:05:01;18.2;63.9
78571;SHT31;67861;51.966;5.672;2023-05-10T10:07:31;18.2;63.5
78571;SHT31;67861;51.966;5.672;2023-05-10T10:10:03;18.3;61.4
78571;SHT31;67861;51.966;5.672;2023-05-10T10:12:38;18.3;63.8
78571;SHT31;67861;51.966;5.672;2023-05-10T10:15:09;18.3;65.1
78571;SHT31;67861;51.966;5.672;2023-05-10T10:17:39;18.3;65.3
78571;SHT31;67861;51.966;5.672;2023-05-10T10:20:10;18.3;62.9
78571;SHT31;67861;51.966;5.672;2023-05-10T10:22:40;18.3;65.1
78571;SHT31;67861;51.966;5.672;2023-05-10T10:25:13;18.3;65.5
78571;SHT31;67861;51.966;5.672;2023-05-10T10:27:56;18.4;65.1
78571;SHT31;67861;51.966;5.672;2023-05-10T10:30:29;18.4;63.8
78571;SHT31;67861;51.966;5.672;2023-05-10T10:33:24;18.4;65.1
78571;SHT31;67861;51.966;5.672;2023-05-10T10:35:55;18.4;65.1
78571;SHT31;67861;51.966;5.672;2023-05-10T10:38:37;18.5;64.4
78571;SHT31;67861;51.966;5.672;2023-05-10T10:41:26;18.5;62.3
78571;SHT31;67861;51.966;5.672;2023-05-10T10:44:25;18.5;63.9
78571;SHT31;67861;51.966;5.672;2023-05-10T10:47:02;18.6;62.1
78571;SHT31;67861;51.966;5.672;2023-05-10T10:49:37;18.6;62.1
78571;SHT31;67861;51.966;5.672;2023-05-10T10:52:21;18.6;64.3
78571;SHT31;67861;51.966;5.672;2023-05-10T10:55:00;18.6;59.9
78571;SHT31;67861;51.966;5.672;2023-05-10T11:00:29;19.1;61.9
78571;SHT31;67861;51.966;5.672;2023-05-10T11:03:03;19.1;61.9
78571;SHT31;67861;51.966;5.672;2023-05-10T11:05:39;19.1;62.2
78571;SHT31;67861;51.966;5.672;2023-05-10T11:08:25;19.1;59.5
78571;SHT31;67861;51.966;5.672;2023-05-10T11:11:06;19.1;62.3
78571;SHT31;67861;51.966;5.672;2023-05-10T11:13:39;19.1;58.8
78571;SHT31;67861;51.966;5.672;2023-05-10T11:16:14;19.1;60.6
78571;SHT31;67861;51.966;5.672;2023-05-10T11:18:56;19.1;62.7
78571;SHT31;67861;51.966;5.672;2023-05-10T11:21:28;19.0;63.1
78571;SHT31;67861;51.966;5.672;2023-05-10T11:23:59;19.0;63.1
78571;SHT31;67861;51.966;5.672;2023-05-10T11:26:35;19.0;62.6
78571;SHT31;67861;51.966;5.672;2023-05-10T11:29:06;19.0;63.2
78571;SHT31;67861;51.966;5.672;2023-05-10T11:31:43;19.0;63.2
78571;SHT31;67861;51.966;5.672;2023-05-10T11:34:24;19.0;63.4
78571;SHT31;67861;51.966;5.672;2023-05-10T11:36:56;19.1;61.0
78571;SHT31;67861;51.966;5.672;2023-05-10T11:39:28;19.1;62.9
78571;SHT31;67861;51.966;5.672;2023-05-10T11:41:59;19.1;61.3
78571;SHT31;67861;51.966;5.672;2023-05-10T11:44:31;19.1;60.6
78571;SHT31;67861;51.966;5.672;2023-05-10T11:47:02;19.1;61.5
78571;SHT31;67861;51.966;5.672;2023-05-10T11:49:31;19.1;63.3
78571;SHT31;67861;51.966;5.672;2023-05-10T11:52:08;19.1;63.5
78571;SHT31;67861;51.966;5.672;2023-05-10T11:54:54;19.1;62.8
78571;SHT31;67861;51.966;5.672;2023-05-10T11:57:26;19.2;61.2
78571;SHT31;67861;51.966;5.672;2023-05-10T11:59:58;19.2;63.9
78571;SHT31;67861;51.966;5.672;2023-05-10T12:02:30;19.3;60.7
78571;SHT31;67861;51.966;5.672;2023-05-10T12:05:01;19.3;64.2
78571;SHT31;67861;51.966;5.672;2023-05-10T12:07:32;19.4;60.7
78571;SHT31;67861;51.966;5.672;2023-05-10T12:10:07;19.4;62.5
78571;SHT31;67861;51.966;5.672;2023-05-10T12:12:40;19.5;59.9
78571;SHT31;67861;51.966;5.672;2023-05-10T12:15:18;19.5;62.6
78571;SHT31;67861;51.966;5.672;2023-05-10T12:17:49;19.6;62.6
78571;SHT31;67861;51.966;5.672;2023-05-10T12:20:20;19.7;61.0
78571;SHT31;67861;51.966;5.672;2023-05-10T12:22:52;19.7;62.1
78571;SHT31;67861;51.966;5.672;2023-05-10T12:25:24;19.7;59.7
78571;SHT31;67861;51.966;5.672;2023-05-10T12:27:58;19.8;56.8
78571;SHT31;67861;51.966;5.672;2023-05-10T12:30:31;19.8;59.2
78571;SHT31;67861;51.966;5.672;2023-05-10T12:33:02;19.8;61.2
78571;SHT31;67861;51.966;5.672;2023-05-10T12:35:47;19.8;61.1
78571;SHT31;67861;51.966;5.672;2023-05-10T12:38:32;19.9;62.9
78571;SHT31;67861;51.966;5.672;2023-05-10T12:41:04;19.9;58.2
78571;SHT31;67861;51.966;5.672;2023-05-10T12:43:35;19.9;60.7
78571;SHT31;67861;51.966;5.672;2023-05-10T12:46:10;20.0;58.7
78571;SHT31;67861;51.966;5.672;2023-05-10T12:48:44;20.0;60.1
78571;SHT31;67861;51.966;5.672;2023-05-10T12:51:18;20.0;60.8
78571;SHT31;67861;51.966;5.672;2023-05-10T12:53:49;20.1;58.0
78571;SHT31;67861;51.966;5.672;2023-05-10T12:56:19;20.1;60.0
78571;SHT31;67861;51.966;5.672;2023-05-10T12:58:48;20.1;58.8
78571;SHT31;67861;51.966;5.672;2023-05-10T13:01:18;20.1;59.3
78571;SHT31;67861;51.966;5.672;2023-05-10T13:03:50;20.2;58.9
78571;SHT31;67861;51.966;5.672;2023-05-10T13:06:21;20.2;58.6
78571;SHT31;67861;51.966;5.672;2023-05-10T13:08:51;20.2;59.1
78571;SHT31;67861;51.966;5.672;2023-05-10T13:11:21;20.2;58.8
78571;SHT31;67861;51.966;5.672;2023-05-10T13:13:51;20.1;58.9
78571;SHT31;67861;51.966;5.672;2023-05-10T13:16:21;20.1;58.5
78571;SHT31;67861;51.966;5.672;2023-05-10T13:18:50;20.1;59.5
78571;SHT31;67861;51.966;5.672;2023-05-10T13:21:20;20.1;58.8
78571;SHT31;67861;51.966;5.672;2023-05-10T13:23:51;20.1;58.7
78571;SHT31;67861;51.966;5.672;2023-05-10T13:26:21;20.0;59.9
78571;SHT31;67861;51.966;5.672;2023-05-10T13:28:51;20.0;60.1
78571;SHT31;67861;51.966;5.672;2023-05-10T13:31:22;20.0;60.3
78571;SHT31;67861;51.966;5.672;2023-05-10T13:33:52;19.9;59.4
78571;SHT31;67861;51.966;5.672;2023-05-10T13:36:22;19.9;60.2
78571;SHT31;67861;51.966;5.672;2023-05-10T13:38:51;19.9;60.1
78571;SHT31;67861;51.966;5.672;2023-05-10T13:41:21;19.8;60.8
78571;SHT31;67861;51.966;5.672;2023-05-10T13:43:50;19.8;60.5
78571;SHT31;67861;51.966;5.672;2023-05-10T13:46:20;19.8;61.6
78571;SHT31;67861;51.966;5.672;2023-05-10T13:48:51;19.8;62.3
78571;SHT31;67861;51.966;5.672;2023-05-10T13:51:20;19.8;62.7
78571;SHT31;67861;51.966;5.672;2023-05-10T13:53:52;19.7;62.8
78571;SHT31;67861;51.966;5.672;2023-05-10T13:56:21;19.7;63.1
78571;SHT31;67861;51.966;5.672;2023-05-10T13:58:51;19.7;61.6
78571;SHT31;67861;51.966;5.672;2023-05-10T14:01:20;19.6;61.8
78571;SHT31;67861;51.966;5.672;2023-05-10T14:03:50;19.6;62.3
78571;SHT31;67861;51.966;5.672;2023-05-10T14:06:20;19.5;60.4
78571;SHT31;67861;51.966;5.672;2023-05-10T14:08:49;19.5;60.7
78571;SHT31;67861;51.966;5.672;2023-05-10T14:11:19;19.4;61.2
78571;SHT31;67861;51.966;5.672;2023-05-10T14:13:49;19.3;62.5
78571;SHT31;67861;51.966;5.672;2023-05-10T14:16:18;19.2;62.6
78571;SHT31;67861;51.966;5.672;2023-05-10T14:18:48;19.2;62.2
78571;SHT31;67861;51.966;5.672;2023-05-10T14:21:20;19.1;62.9
78571;SHT31;67861;51.966;5.672;2023-05-10T14:23:50;19.0;64.3
78571;SHT31;67861;51.966;5.672;2023-05-10T14:26:20;19.0;64.1
78571;SHT31;67861;51.966;5.672;2023-05-10T14:28:49;18.9;64.3
78571;SHT31;67861;51.966;5.672;2023-05-10T14:31:21;18.9;65.4
78571;SHT31;67861;51.966;5.672;2023-05-10T14:33:53;18.8;64.7
78571;SHT31;67861;51.966;5.672;2023-05-10T14:36:22;18.8;65.0
78571;SHT31;67861;51.966;5.672;2023-05-10T14:38:52;18.8;65.5
78571;SHT31;67861;51.966;5.672;2023-05-10T14:41:21;18.8;63.6
78571;SHT31;67861;51.966;5.672;2023-05-10T14:43:52;18.8;62.4
78571;SHT31;67861;51.966;5.672;2023-05-10T14:46:21;18.7;63.0
78571;SHT31;67861;51.966;5.672;2023-05-10T14:48:51;18.7;65.5
78571;SHT31;67861;51.966;5.672;2023-05-10T14:51:20;18.7;63.6
78571;SHT31;67861;51.966;5.672;2023-05-10T14:53:50;18.6;65.2
78571;SHT31;67861;51.966;5.672;2023-05-10T14:56:24;18.6;64.4
78571;SHT31;67861;51.966;5.672;2023-05-10T14:58:53;18.7;63.7
78571;SHT31;67861;51.966;5.672;2023-05-10T15:01:23;18.7;63.9
78571;SHT31;67861;51.966;5.672;2023-05-10T15:03:52;18.7;63.5
78571;SHT31;67861;51.966;5.672;2023-05-10T15:06:34;18.7;63.3
78571;SHT31;67861;51.966;5.672;2023-05-10T15:09:04;18.7;64.7
78571;SHT31;67861;51.966;5.672;2023-05-10T15:11:34;18.7;65.0
78571;SHT31;67861;51.966;5.672;2023-05-10T15:14:04;18.7;65.6
78571;SHT31;67861;51.966;5.672;2023-05-10T15:16:33;18.7;65.3
78571;SHT31;67861;51.966;5.672;2023-05-10T15:19:03;18.7;65.1
78571;SHT31;67861;51.966;5.672;2023-05-10T15:21:33;18.8;65.5
78571;SHT31;67861;51.966;5.672;2023-05-10T15:24:06;18.8;66.4
78571;SHT31;67861;51.966;5.672;2023-05-10T15:26:37;18.8;64.1
78571;SHT31;67861;51.966;5.672;2023-05-10T15:29:07;18.8;65.7
78571;SHT31;67861;51.966;5.672;2023-05-10T15:31:37;18.8;63.9
78571;SHT31;67861;51.966;5.672;2023-05-10T15:34:08;18.9;63.6
78571;SHT31;67861;51.966;5.672;2023-05-10T15:36:37;18.9;63.1
78571;SHT31;67861;51.966;5.672;2023-05-10T15:39:07;18.9;63.1
78571;SHT31;67861;51.966;5.672;2023-05-10T15:41:37;18.9;62.9
78571;SHT31;67861;51.966;5.672;2023-05-10T15:44:09;19.0;63.3
78571;SHT31;67861;51.966;5.672;2023-05-10T15:46:39;19.0;62.0
78571;SHT31;67861;51.966;5.672;2023-05-10T15:49:10;19.0;64.0
78571;SHT31;67861;51.966;5.672;2023-05-10T15:51:39;19.0;64.1
78571;SHT31;67861;51.966;5.672;2023-05-10T15:54:09;19.1;61.2
78571;SHT31;67861;51.966;5.672;2023-05-10T15:56:40;19.1;63.5
78571;SHT31;67861;51.966;5.672;2023-05-10T15:59:09;19.2;63.7
78571;SHT31;67861;51.966;5.672;2023-05-10T16:01:39;19.2;61.9
78571;SHT31;67861;51.966;5.672;2023-05-10T16:04:08;19.2;61.6
78571;SHT31;67861;51.966;5.672;2023-05-10T16:06:38;19.3;61.4
78571;SHT31;67861;51.966;5.672;2023-05-10T16:09:08;19.3;62.5
78571;SHT31;67861;51.966;5.672;2023-05-10T16:11:38;19.3;62.3
78571;SHT31;67861;51.966;5.672;2023-05-10T16:14:10;19.3;61.0
78571;SHT31;67861;51.966;5.672;2023-05-10T16:16:39;19.3;61.5
78571;SHT31;67861;51.966;5.672;2023-05-10T16:19:09;19.2;61.1
78571;SHT31;67861;51.966;5.672;2023-05-10T16:21:39;19.2;60.6
78571;SHT31;67861;51.966;5.672;2023-05-10T16:24:08;19.2;62.0
78571;SHT31;67861;51.966;5.672;2023-05-10T16:26:38;19.2;63.0
78571;SHT31;67861;51.966;5.672;2023-05-10T16:29:08;19.1;64.2
78571;SHT31;67861;51.966;5.672;2023-05-10T16:31:37;19.1;62.9
78571;SHT31;67861;51.966;5.672;2023-05-10T16:34:07;19.2;64.1
78571;SHT31;67861;51.966;5.672;2023-05-10T16:36:38;19.2;63.5
78571;SHT31;67861;51.966;5.672;2023-05-10T16:39:08;19.2;63.8
78571;SHT31;67861;51.966;5.672;2023-05-10T16:41:37;19.2;61.2
78571;SHT31;67861;51.966;5.672;2023-05-10T16:44:07;19.2;61.7
78571;SHT31;67861;51.966;5.672;2023-05-10T16:46:36;19.2;62.6
78571;SHT31;67861;51.966;5.672;2023-05-10T16:49:07;19.3;63.0
78571;SHT31;67861;51.966;5.672;2023-05-10T16:51:38;19.3;63.5
78571;SHT31;67861;51.966;5.672;2023-05-10T16:54:08;19.3;63.3
78571;SHT31;67861;51.966;5.672;2023-05-10T16:56:38;19.4;62.8
78571;SHT31;67861;51.966;5.672;2023-05-10T16:59:07;19.4;63.2
78571;SHT31;67861;51.966;5.672;2023-05-10T17:01:37;19.4;63.1
78571;SHT31;67861;51.966;5.672;2023-05-10T17:04:06;19.5;61.5
78571;SHT31;67861;51.966;5.672;2023-05-10T17:06:36;19.6;62.3
78571;SHT31;67861;51.966;5.672;2023-05-10T17:09:05;19.7;60.9
78571;SHT31;67861;51.966;5.672;2023-05-10T17:11:35;19.7;61.5
78571;SHT31;67861;51.966;5.672;2023-05-10T17:14:04;19.7;62.1
78571;SHT31;67861;51.966;5.672;2023-05-10T17:16:35;19.7;62.7
78571;SHT31;67861;51.966;5.672;2023-05-10T17:19:05;19.7;62.9
78571;SHT31;67861;51.966;5.672;2023-05-10T17:21:34;19.7;62.7
78571;SHT31;67861;51.966;5.672;2023-05-10T17:24:04;19.8;62.6
78571;SHT31;67861;51.966;5.672;2023-05-10T17:26:36;19.8;62.3
78571;SHT31;67861;51.966;5.672;2023-05-10T17:29:07;19.8;60.4
78571;SHT31;67861;51.966;5.672;2023-05-10T17:31:37;19.8;62.0
78571;SHT31;67861;51.966;5.672;2023-05-10T17:34:06;19.9;61.4
78571;SHT31;67861;51.966;5.672;2023-05-10T17:36:40;19.9;59.4
78571;SHT31;67861;51.966;5.672;2023-05-10T17:39:10;20.0;60.9
78571;SHT31;67861;51.966;5.672;2023-05-10T17:41:40;20.0;61.1
78571;SHT31;67861;51.966;5.672;2023-05-10T17:44:09;20.0;60.6
78571;SHT31;67861;51.966;5.672;2023-05-10T17:46:39;19.9;60.7
78571;SHT31;67861;51.966;5.672;2023-05-10T17:49:09;19.9;61.1
78571;SHT31;67861;51.966;5.672;2023-05-10T17:51:38;19.9;60.4
78571;SHT31;67861;51.966;5.672;2023-05-10T17:54:10;19.9;61.3
78571;SHT31;67861;51.966;5.672;2023-05-10T17:56:40;19.9;61.3
78571;SHT31;67861;51.966;5.672;2023-05-10T17:59:09;20.0;59.5
78571;SHT31;67861;51.966;5.672;2023-05-10T18:01:39;19.9;59.7
78571;SHT31;67861;51.966;5.672;2023-05-10T18:04:09;19.9;60.5
78571;SHT31;67861;51.966;5.672;2023-05-10T18:06:38;19.9;61.0
78571;SHT31;67861;51.966;5.672;2023-05-10T18:09:13;19.9;59.5